createdAt,value
2022-11-26T00:01:01.873Z,5.60
2022-11-26T00:03:28.572Z,5.60
2022-11-26T00:05:56.414Z,5.60
2022-11-26T00:08:27.947Z,5.70
2022-11-26T00:10:54.658Z,5.70
2022-11-26T00:13:26.128Z,5.70
2022-11-26T00:15:52.947Z,5.70
2022-11-26T00:18:19.837Z,5.70
2022-11-26T00:20:49.479Z,5.70
2022-11-26T00:23:19.201Z,5.70
2022-11-26T00:25:47.261Z,5.70
2022-11-26T00:28:24.721Z,5.70
2022-11-26T00:30:51.545Z,5.70
2022-11-26T00:33:18.328Z,5.70
2022-11-26T00:35:46.881Z,5.70
2022-11-26T00:38:16.507Z,5.70
2022-11-26T00:40:43.148Z,5.70
2022-11-26T00:43:13.425Z,5.60
2022-11-26T00:45:40.392Z,5.70
2022-11-26T00:48:07.183Z,5.70
2022-11-26T00:50:38.373Z,5.70
2022-11-26T00:53:05.237Z,5.60
2022-11-26T00:55:36.847Z,5.70
2022-11-26T00:58:08.219Z,5.60
2022-11-26T01:00:35.257Z,5.60
2022-11-26T01:03:02.252Z,5.60
2022-11-26T01:05:30.714Z,5.60
2022-11-26T01:07:58.978Z,5.60
2022-11-26T01:10:27.159Z,5.60
2022-11-26T01:12:54.462Z,5.60
2022-11-26T01:15:23.149Z,5.60
2022-11-26T01:17:50.038Z,5.60
2022-11-26T01:20:25.295Z,5.50
2022-11-26T01:22:52.997Z,5.50
2022-11-26T01:25:20.396Z,5.50
2022-11-26T01:27:47.140Z,5.50
2022-11-26T01:30:24.539Z,5.50
2022-11-26T01:32:51.568Z,5.50
2022-11-26T01:35:18.825Z,5.50
2022-11-26T01:37:45.831Z,5.40
2022-11-26T01:40:24.567Z,5.50
2022-11-26T01:42:53.266Z,5.40
2022-11-26T01:45:21.801Z,5.40
2022-11-26T01:47:49.137Z,5.50
2022-11-26T01:50:28.091Z,5.50
2022-11-26T01:53:15.063Z,5.50
2022-11-26T01:55:45.071Z,5.50
2022-11-26T01:58:13.487Z,5.50
2022-11-26T02:00:40.550Z,5.50
2022-11-26T02:03:07.467Z,5.50
2022-11-26T02:05:40.803Z,5.40
2022-11-26T02:08:08.400Z,5.40
2022-11-26T02:10:35.277Z,5.50
2022-11-26T02:13:02.337Z,5.40
2022-11-26T02:15:33.989Z,5.40
2022-11-26T02:18:06.179Z,5.40
2022-11-26T02:20:53.675Z,5.30
2022-11-26T02:23:23.222Z,5.20
2022-11-26T02:26:08.703Z,5.20
2022-11-26T02:28:38.384Z,5.20
2022-11-26T02:31:14.084Z,5.20
2022-11-26T02:33:50.730Z,5.20
2022-11-26T02:36:21.175Z,5.20
2022-11-26T02:38:47.888Z,5.20
2022-11-26T02:41:14.552Z,5.20
2022-11-26T02:43:41.307Z,5.20
2022-11-26T02:46:10.422Z,5.20
2022-11-26T02:48:39.226Z,5.20
2022-11-26T02:51:10.023Z,5.30
2022-11-26T02:53:37.909Z,5.20
2022-11-26T02:56:09.518Z,5.30
2022-11-26T02:58:36.675Z,5.30
2022-11-26T03:01:05.203Z,5.30
2022-11-26T03:03:34.626Z,5.40
2022-11-26T03:06:04.522Z,5.40
2022-11-26T03:08:32.500Z,5.40
2022-11-26T03:10:59.464Z,5.50
2022-11-26T03:13:26.551Z,5.50
2022-11-26T03:15:53.200Z,5.60
2022-11-26T03:18:19.848Z,5.70
2022-11-26T03:20:46.574Z,5.70
2022-11-26T03:23:13.295Z,5.70
2022-11-26T03:25:58.463Z,5.70
2022-11-26T03:28:25.203Z,5.70
2022-11-26T03:30:52.724Z,5.70
2022-11-26T03:33:19.469Z,5.80
2022-11-26T03:35:48.008Z,5.80
2022-11-26T03:38:15.025Z,5.80
2022-11-26T03:40:42.057Z,5.80
2022-11-26T03:43:08.773Z,5.90
2022-11-26T03:45:35.518Z,5.90
2022-11-26T03:48:02.472Z,5.90
2022-11-26T03:50:29.373Z,5.90
2022-11-26T03:52:56.066Z,5.90
2022-11-26T03:55:22.835Z,5.90
2022-11-26T03:57:50.069Z,5.90
2022-11-26T04:00:17.623Z,5.90
2022-11-26T04:02:44.377Z,5.90
2022-11-26T04:05:11.063Z,5.90
2022-11-26T04:07:37.766Z,5.90
2022-11-26T04:10:04.886Z,6.00
2022-11-26T04:12:31.548Z,6.00
2022-11-26T04:14:58.245Z,6.00
2022-11-26T04:17:25.099Z,6.00
2022-11-26T04:19:52.283Z,5.90
2022-11-26T04:22:18.937Z,5.90
2022-11-26T04:24:45.618Z,5.90
2022-11-26T04:27:12.234Z,5.80
2022-11-26T04:29:38.911Z,5.80
2022-11-26T04:32:05.795Z,5.80
2022-11-26T04:34:32.658Z,5.70
2022-11-26T04:36:59.316Z,5.70
2022-11-26T04:39:26.074Z,5.60
2022-11-26T04:41:53.116Z,5.50
2022-11-26T04:44:19.773Z,5.50
2022-11-26T04:46:46.588Z,5.40
2022-11-26T04:49:16.078Z,5.40
2022-11-26T04:51:42.770Z,5.40
2022-11-26T04:54:12.977Z,5.40
2022-11-26T04:56:40.231Z,5.30
2022-11-26T04:59:06.900Z,5.30
2022-11-26T05:01:33.670Z,5.40
2022-11-26T05:04:00.408Z,5.40
2022-11-26T05:06:27.049Z,5.50
2022-11-26T05:08:53.730Z,5.50
2022-11-26T05:11:20.530Z,5.50
2022-11-26T05:13:47.277Z,5.60
2022-11-26T05:16:13.959Z,5.60
2022-11-26T05:18:40.732Z,5.60
2022-11-26T05:21:07.824Z,5.70
2022-11-26T05:23:34.566Z,5.70
2022-11-26T05:26:01.207Z,5.70
2022-11-26T05:28:27.965Z,5.70
2022-11-26T05:31:01.208Z,5.70
2022-11-26T05:33:28.331Z,5.60
2022-11-26T05:35:55.252Z,5.50
2022-11-26T05:38:22.153Z,5.50
2022-11-26T05:40:48.852Z,5.50
2022-11-26T05:43:15.526Z,5.50
2022-11-26T05:45:42.323Z,5.40
2022-11-26T05:48:09.104Z,5.40
2022-11-26T05:50:36.190Z,5.40
2022-11-26T05:53:02.994Z,5.40
2022-11-26T05:55:29.698Z,5.30
2022-11-26T05:57:56.360Z,5.20
2022-11-26T06:00:23.267Z,5.20
2022-11-26T06:02:50.162Z,5.20
2022-11-26T06:05:17.044Z,5.10
2022-11-26T06:07:45.016Z,5.10
2022-11-26T06:10:12.791Z,5.00
2022-11-26T06:12:39.529Z,5.00
2022-11-26T06:15:06.507Z,4.90
2022-11-26T06:17:33.144Z,4.90
2022-11-26T06:20:00.109Z,4.90
2022-11-26T06:22:26.852Z,4.80
2022-11-26T06:24:53.658Z,4.80
2022-11-26T06:27:20.322Z,4.80
2022-11-26T06:29:47.037Z,4.80
2022-11-26T06:32:13.680Z,4.80
2022-11-26T06:34:43.677Z,4.70
2022-11-26T06:37:10.684Z,4.80
2022-11-26T06:39:37.370Z,4.70
2022-11-26T06:42:04.069Z,4.70
2022-11-26T06:44:30.782Z,4.70
2022-11-26T06:46:57.496Z,4.60
2022-11-26T06:49:24.163Z,4.60
2022-11-26T06:51:50.931Z,4.60
2022-11-26T06:54:17.650Z,4.60
2022-11-26T06:56:44.477Z,4.60
2022-11-26T06:59:11.116Z,4.50
2022-11-26T07:01:37.855Z,4.50
2022-11-26T07:04:05.008Z,4.50
2022-11-26T07:06:32.887Z,4.50
2022-11-26T07:09:02.639Z,4.50
2022-11-26T07:11:29.332Z,4.60
2022-11-26T07:13:56.773Z,4.60
2022-11-26T07:16:23.564Z,4.60
2022-11-26T07:18:50.926Z,4.60
2022-11-26T07:21:17.962Z,4.70
2022-11-26T07:23:45.107Z,4.70
2022-11-26T07:26:12.466Z,4.80
2022-11-26T07:28:39.396Z,4.80
2022-11-26T07:31:12.937Z,4.80
2022-11-26T07:33:42.956Z,4.90
2022-11-26T07:36:12.389Z,4.90
2022-11-26T07:38:39.055Z,4.90
2022-11-26T07:41:06.835Z,4.90
2022-11-26T07:43:40.492Z,5.00
2022-11-26T07:46:08.039Z,5.00
2022-11-26T07:48:35.290Z,5.10
2022-11-26T07:51:02.497Z,5.10
2022-11-26T07:53:30.134Z,5.10
2022-11-26T07:55:56.821Z,5.20
2022-11-26T07:58:23.491Z,5.20
2022-11-26T08:00:54.398Z,5.30
2022-11-26T08:03:21.747Z,5.40
2022-11-26T08:05:48.472Z,5.50
2022-11-26T08:08:15.211Z,5.90
2022-11-26T08:10:41.964Z,6.90
2022-11-26T08:13:08.638Z,8.00
2022-11-26T08:15:37.608Z,9.00
2022-11-26T08:18:04.567Z,9.90
2022-11-26T08:20:31.409Z,10.70
2022-11-26T08:22:58.080Z,11.50
2022-11-26T08:25:24.744Z,12.10
2022-11-26T08:27:51.394Z,12.60
2022-11-26T08:30:18.153Z,13.10
2022-11-26T08:32:44.804Z,13.60
2022-11-26T08:35:12.131Z,13.90
2022-11-26T08:37:38.824Z,14.00
2022-11-26T08:40:05.817Z,14.10
2022-11-26T08:42:32.520Z,14.30
2022-11-26T08:44:59.170Z,14.60
2022-11-26T08:47:25.864Z,14.90
2022-11-26T08:49:52.555Z,15.20
2022-11-26T08:52:19.432Z,15.40
2022-11-26T08:54:46.449Z,15.70
2022-11-26T08:57:13.585Z,16.10
2022-11-26T08:59:40.792Z,16.40
2022-11-26T09:02:10.019Z,16.80
2022-11-26T09:04:38.777Z,16.70
2022-11-26T09:07:06.473Z,16.60
2022-11-26T09:09:33.370Z,16.60
2022-11-26T09:12:00.955Z,16.70
2022-11-26T09:14:28.547Z,16.80
2022-11-26T09:16:55.687Z,16.80
2022-11-26T09:19:23.120Z,16.90
2022-11-26T09:21:50.240Z,17.00
2022-11-26T09:24:17.326Z,17.20
2022-11-26T09:26:44.134Z,17.30
2022-11-26T09:29:14.503Z,17.50
2022-11-26T09:32:00.603Z,17.60
2022-11-26T09:34:28.483Z,17.60
2022-11-26T09:36:55.209Z,17.40
2022-11-26T09:39:21.994Z,17.50
2022-11-26T09:42:03.942Z,17.50
2022-11-26T09:44:33.632Z,17.60
2022-11-26T09:47:17.260Z,17.80
2022-11-26T09:49:46.952Z,18.20
2022-11-26T09:52:15.537Z,18.20
2022-11-26T09:54:42.519Z,18.20
2022-11-26T09:57:18.448Z,18.00
2022-11-26T09:59:46.311Z,18.00
2022-11-26T10:02:13.292Z,17.90
2022-11-26T10:04:40.933Z,17.80
2022-11-26T10:07:14.440Z,17.70
2022-11-26T10:09:50.191Z,17.00
2022-11-26T10:12:28.988Z,15.90
2022-11-26T10:14:59.377Z,14.60
2022-11-26T10:17:39.870Z,13.40
2022-11-26T10:20:26.858Z,12.40
2022-11-26T10:23:11.824Z,11.60
2022-11-26T10:25:45.192Z,10.90
2022-11-26T10:28:18.733Z,10.40
2022-11-26T10:30:46.133Z,10.10
2022-11-26T10:33:15.056Z,9.90
2022-11-26T10:35:42.832Z,9.70
2022-11-26T10:38:10.401Z,9.60
2022-11-26T10:40:37.108Z,9.50
2022-11-26T10:43:09.691Z,9.40
2022-11-26T10:45:38.601Z,9.30
2022-11-26T10:48:14.607Z,9.30
2022-11-26T10:50:47.708Z,9.20
2022-11-26T10:53:20.266Z,9.20
2022-11-26T10:55:47.121Z,9.20
2022-11-26T10:58:16.296Z,9.10
2022-11-26T11:00:44.939Z,9.00
2022-11-26T11:03:28.705Z,9.00
2022-11-26T11:06:20.223Z,8.90
2022-11-26T11:08:47.713Z,8.90
2022-11-26T11:11:22.125Z,8.90
2022-11-26T11:13:49.270Z,8.90
2022-11-26T11:16:26.082Z,8.80
2022-11-26T11:19:01.363Z,8.80
2022-11-26T11:21:33.726Z,8.70
2022-11-26T11:24:14.061Z,8.70
2022-11-26T11:26:48.201Z,8.70
2022-11-26T11:29:33.187Z,8.70
2022-11-26T11:32:02.124Z,8.70
2022-11-26T11:34:32.004Z,8.70
2022-11-26T11:37:00.142Z,8.70
2022-11-26T11:39:31.121Z,8.70
2022-11-26T11:41:59.209Z,8.80
2022-11-26T11:44:32.247Z,8.80
2022-11-26T11:47:04.676Z,8.80
2022-11-26T11:49:31.332Z,8.80
2022-11-26T11:51:57.983Z,8.80
2022-11-26T11:54:38.154Z,8.80
2022-11-26T11:57:11.549Z,8.80
2022-11-26T11:59:58.393Z,8.80
2022-11-26T12:02:26.020Z,8.80
2022-11-26T12:05:02.583Z,8.80
2022-11-26T12:07:35.516Z,8.90
2022-11-26T12:10:10.167Z,8.90
2022-11-26T12:12:38.484Z,8.90
2022-11-26T12:15:26.748Z,8.90
2022-11-26T12:18:00.725Z,8.90
2022-11-26T12:20:47.715Z,8.90
2022-11-26T12:23:32.785Z,8.90
2022-11-26T12:25:59.644Z,8.90
2022-11-26T12:28:28.231Z,8.80
2022-11-26T12:30:58.285Z,8.80
2022-11-26T12:33:34.778Z,8.80
2022-11-26T12:36:16.947Z,8.80
2022-11-26T12:38:54.464Z,8.80
2022-11-26T12:41:27.574Z,8.80
2022-11-26T12:44:12.685Z,8.80
2022-11-26T12:46:55.550Z,8.80
2022-11-26T12:49:27.058Z,8.80
2022-11-26T12:52:06.752Z,8.80
2022-11-26T12:54:39.869Z,8.80
2022-11-26T12:57:15.992Z,8.80
2022-11-26T12:59:55.906Z,8.70
2022-11-26T13:02:30.538Z,8.70
2022-11-26T13:04:58.095Z,8.60
2022-11-26T13:07:37.140Z,8.60
2022-11-26T13:10:16.399Z,8.60
2022-11-26T13:12:59.176Z,8.60
2022-11-26T13:15:37.804Z,8.50
2022-11-26T13:18:07.877Z,8.50
2022-11-26T13:20:53.384Z,8.50
2022-11-26T13:23:28.821Z,8.40
2022-11-26T13:26:04.766Z,8.40
2022-11-26T13:28:50.730Z,8.40
2022-11-26T13:31:36.387Z,8.40
2022-11-26T13:34:28.615Z,8.40
2022-11-26T13:37:14.458Z,8.30
2022-11-26T13:39:47.018Z,8.30
2022-11-26T13:42:13.781Z,8.20
2022-11-26T13:44:40.984Z,8.20
2022-11-26T13:47:14.708Z,8.20
2022-11-26T13:49:47.737Z,8.20
2022-11-26T13:52:14.391Z,8.20
2022-11-26T13:54:45.332Z,8.20
2022-11-26T13:57:14.498Z,8.20
2022-11-26T13:59:48.082Z,8.10
2022-11-26T14:02:33.178Z,8.10
2022-11-26T14:05:10.577Z,8.10
2022-11-26T14:07:37.366Z,8.10
2022-11-26T14:10:05.679Z,8.00
2022-11-26T14:12:51.284Z,8.00
2022-11-26T14:15:36.671Z,8.00
2022-11-26T14:18:03.408Z,8.10
2022-11-26T14:20:30.094Z,8.10
2022-11-26T14:22:56.837Z,8.20
2022-11-26T14:25:38.882Z,8.20
2022-11-26T14:28:09.242Z,8.20
2022-11-26T14:30:36.347Z,8.10
2022-11-26T14:33:10.679Z,8.10
2022-11-26T14:35:38.395Z,8.10
2022-11-26T14:38:06.308Z,8.00
2022-11-26T14:40:35.681Z,8.00
2022-11-26T14:43:06.576Z,7.90
2022-11-26T14:45:33.473Z,7.80
2022-11-26T14:48:01.593Z,7.80
2022-11-26T14:50:30.353Z,7.80
2022-11-26T14:53:03.273Z,7.70
2022-11-26T14:55:31.448Z,7.70
2022-11-26T14:58:09.354Z,7.70
2022-11-26T15:00:36.650Z,7.60
2022-11-26T15:03:04.083Z,7.60
2022-11-26T15:05:34.285Z,7.50
2022-11-26T15:08:05.892Z,7.50
2022-11-26T15:10:52.847Z,7.50
2022-11-26T15:13:23.897Z,7.50
2022-11-26T15:15:54.742Z,7.40
2022-11-26T15:18:22.949Z,7.40
2022-11-26T15:20:53.266Z,7.40
2022-11-26T15:23:25.473Z,7.40
2022-11-26T15:25:54.466Z,7.30
2022-11-26T15:28:21.911Z,7.30
2022-11-26T15:30:53.873Z,7.30
2022-11-26T15:33:20.656Z,7.30
2022-11-26T15:35:49.071Z,7.30
2022-11-26T15:38:17.114Z,7.30
2022-11-26T15:40:51.826Z,7.30
2022-11-26T15:43:21.853Z,7.30
2022-11-26T15:45:49.557Z,7.30
2022-11-26T15:48:50.394Z,7.30
2022-11-26T15:51:14.384Z,7.30
2022-11-26T15:53:46.130Z,7.20
2022-11-26T15:56:27.141Z,7.20
2022-11-26T15:58:58.450Z,7.20
2022-11-26T16:01:27.344Z,7.20
2022-11-26T16:03:54.771Z,7.10
2022-11-26T16:06:37.914Z,7.10
2022-11-26T16:09:13.689Z,7.00
2022-11-26T16:11:56.196Z,7.00
2022-11-26T16:14:29.297Z,7.00
2022-11-26T16:17:05.061Z,6.90
2022-11-26T16:19:34.923Z,6.90
2022-11-26T16:22:02.455Z,6.90
2022-11-26T16:24:31.476Z,6.80
2022-11-26T16:27:02.697Z,6.80
2022-11-26T16:29:29.986Z,6.60
2022-11-26T16:31:57.098Z,6.50
2022-11-26T16:34:29.627Z,6.40
2022-11-26T16:37:03.834Z,6.30
2022-11-26T16:39:36.057Z,6.20
2022-11-26T16:42:09.162Z,6.10
2022-11-26T16:44:35.840Z,6.00
2022-11-26T16:47:02.501Z,6.00
2022-11-26T16:49:30.293Z,5.90
2022-11-26T16:51:57.014Z,5.80
2022-11-26T16:54:23.672Z,5.70
2022-11-26T16:56:53.330Z,5.70
2022-11-26T16:59:26.107Z,5.60
2022-11-26T17:01:52.860Z,5.50
2022-11-26T17:04:19.644Z,5.50
2022-11-26T17:06:46.633Z,5.40
2022-11-26T17:09:19.581Z,5.40
2022-11-26T17:11:46.492Z,5.30
2022-11-26T17:14:13.304Z,5.30
2022-11-26T17:16:40.661Z,5.30
2022-11-26T17:19:12.395Z,5.20
2022-11-26T17:21:39.299Z,5.20
2022-11-26T17:24:06.233Z,5.10
2022-11-26T17:26:32.958Z,5.00
2022-11-26T17:29:01.175Z,4.90
2022-11-26T17:31:29.953Z,4.80
2022-11-26T17:33:56.804Z,4.80
2022-11-26T17:36:23.821Z,4.70
2022-11-26T17:38:50.845Z,4.70
2022-11-26T17:41:17.517Z,4.60
2022-11-26T17:43:44.354Z,4.70
2022-11-26T17:46:15.613Z,4.80
2022-11-26T17:48:42.703Z,4.80
2022-11-26T17:51:11.192Z,4.90
2022-11-26T17:53:37.850Z,4.90
2022-11-26T17:56:04.615Z,5.00
2022-11-26T17:58:31.330Z,5.00
2022-11-26T18:00:58.083Z,5.10
2022-11-26T18:03:24.834Z,5.10
2022-11-26T18:05:51.571Z,5.10
2022-11-26T18:08:19.106Z,5.10
2022-11-26T18:10:46.826Z,5.10
2022-11-26T18:13:13.486Z,5.10
2022-11-26T18:15:40.593Z,5.10
2022-11-26T18:18:07.637Z,5.10
2022-11-26T18:20:34.391Z,5.10
2022-11-26T18:23:01.182Z,5.10
2022-11-26T18:25:28.462Z,5.10
2022-11-26T18:27:55.164Z,5.10
2022-11-26T18:30:21.891Z,5.00
2022-11-26T18:32:48.639Z,5.00
2022-11-26T18:35:15.389Z,5.00
2022-11-26T18:37:42.135Z,5.00
2022-11-26T18:40:11.043Z,4.90
2022-11-26T18:42:38.503Z,4.90
2022-11-26T18:45:06.641Z,4.90
2022-11-26T18:47:33.499Z,4.90
2022-11-26T18:50:00.247Z,4.90
2022-11-26T18:52:27.113Z,4.80
2022-11-26T18:54:53.758Z,4.70
2022-11-26T18:57:20.513Z,4.70
2022-11-26T18:59:47.341Z,4.70
2022-11-26T19:02:14.164Z,4.60
2022-11-26T19:04:41.343Z,4.50
2022-11-26T19:07:09.039Z,4.50
2022-11-26T19:09:37.406Z,4.40
2022-11-26T19:12:04.742Z,4.40
2022-11-26T19:14:31.440Z,4.30
2022-11-26T19:16:58.186Z,4.30
2022-11-26T19:19:25.620Z,4.30
2022-11-26T19:21:54.560Z,4.30
2022-11-26T19:24:24.653Z,4.30
2022-11-26T19:26:51.534Z,4.30
2022-11-26T19:29:19.233Z,4.20
2022-11-26T19:31:47.426Z,4.20
2022-11-26T19:34:14.856Z,4.20
2022-11-26T19:36:48.477Z,4.20
2022-11-26T19:39:16.013Z,4.30
2022-11-26T19:41:42.829Z,4.20
2022-11-26T19:44:09.489Z,4.20
2022-11-26T19:46:38.080Z,4.30
2022-11-26T19:49:04.806Z,4.20
2022-11-26T19:51:31.513Z,4.20
2022-11-26T19:53:58.207Z,4.10
2022-11-26T19:56:29.060Z,4.10
2022-11-26T19:58:58.637Z,4.10
2022-11-26T20:01:27.459Z,4.10
2022-11-26T20:03:54.337Z,4.10
2022-11-26T20:06:22.237Z,4.10
2022-11-26T20:08:49.261Z,4.00
2022-11-26T20:11:16.883Z,4.00
2022-11-26T20:13:44.532Z,3.90
2022-11-26T20:16:12.747Z,4.00
2022-11-26T20:18:40.183Z,4.00
2022-11-26T20:21:08.223Z,4.10
2022-11-26T20:23:35.225Z,4.10
2022-11-26T20:26:02.105Z,4.10
2022-11-26T20:28:28.853Z,4.00
2022-11-26T20:30:55.624Z,4.10
2022-11-26T20:33:22.700Z,4.10
2022-11-26T20:35:50.082Z,4.00
2022-11-26T20:38:16.933Z,4.00
2022-11-26T20:40:44.143Z,4.00
2022-11-26T20:43:11.054Z,4.00
2022-11-26T20:45:37.999Z,4.00
2022-11-26T20:48:05.009Z,4.00
2022-11-26T20:50:31.877Z,4.00
2022-11-26T20:52:58.884Z,3.90
2022-11-26T20:55:25.681Z,3.90
2022-11-26T20:57:52.472Z,3.90
2022-11-26T21:00:23.540Z,3.90
2022-11-26T21:02:53.096Z,3.90
2022-11-26T21:05:21.383Z,3.90
2022-11-26T21:07:49.138Z,3.90
2022-11-26T21:10:16.393Z,3.90
2022-11-26T21:12:43.202Z,3.80
2022-11-26T21:15:10.731Z,3.80
2022-11-26T21:17:37.643Z,3.80
2022-11-26T21:20:04.930Z,3.80
2022-11-26T21:22:31.622Z,3.80
2022-11-26T21:24:58.563Z,3.80
2022-11-26T21:27:25.224Z,3.80
2022-11-26T21:29:51.995Z,3.80
2022-11-26T21:32:18.707Z,3.80
2022-11-26T21:34:45.622Z,3.80
2022-11-26T21:37:12.433Z,3.80
2022-11-26T21:39:39.317Z,3.80
2022-11-26T21:42:06.307Z,3.80
2022-11-26T21:44:33.056Z,3.70
2022-11-26T21:47:02.580Z,3.70
2022-11-26T21:49:30.862Z,3.70
2022-11-26T21:51:57.890Z,3.60
2022-11-26T21:54:26.278Z,3.50
2022-11-26T21:56:53.087Z,3.50
2022-11-26T21:59:19.792Z,3.50
2022-11-26T22:01:46.913Z,3.40
2022-11-26T22:04:17.649Z,3.40
2022-11-26T22:06:45.104Z,3.40
2022-11-26T22:09:12.625Z,3.30
2022-11-26T22:11:40.911Z,3.30
2022-11-26T22:14:08.448Z,3.30
2022-11-26T22:16:35.454Z,3.20
2022-11-26T22:19:02.427Z,3.30
2022-11-26T22:21:36.865Z,3.30
2022-11-26T22:24:04.129Z,3.30
2022-11-26T22:26:31.386Z,3.40
2022-11-26T22:28:58.192Z,3.40
2022-11-26T22:31:26.857Z,3.40
2022-11-26T22:33:58.022Z,3.50
2022-11-26T22:36:24.805Z,3.50
2022-11-26T22:38:51.789Z,3.50
2022-11-26T22:41:18.585Z,3.60
2022-11-26T22:43:45.382Z,3.60
2022-11-26T22:46:13.672Z,3.60
2022-11-26T22:48:40.838Z,3.60
2022-11-26T22:51:07.808Z,3.60
2022-11-26T22:53:34.643Z,3.50
2022-11-26T22:56:02.913Z,3.50
2022-11-26T22:58:30.405Z,3.50
2022-11-26T23:00:59.066Z,3.50
2022-11-26T23:03:26.895Z,3.40
2022-11-26T23:05:53.888Z,3.40
2022-11-26T23:08:21.291Z,3.40
2022-11-26T23:10:50.752Z,3.30
2022-11-26T23:13:19.616Z,3.20
2022-11-26T23:15:47.359Z,3.20
2022-11-26T23:18:15.233Z,3.10
2022-11-26T23:20:43.164Z,3.10
2022-11-26T23:23:10.043Z,3.00
2022-11-26T23:25:40.291Z,3.00
2022-11-26T23:28:07.697Z,2.90
2022-11-26T23:30:34.908Z,2.90
2022-11-26T23:33:01.638Z,2.90
2022-11-26T23:35:28.348Z,2.90
2022-11-26T23:37:55.022Z,2.80
2022-11-26T23:40:21.672Z,2.80
2022-11-26T23:42:48.332Z,2.80
2022-11-26T23:45:14.975Z,2.70
2022-11-26T23:47:41.629Z,2.60
2022-11-26T23:50:08.470Z,2.50
2022-11-26T23:52:35.400Z,2.40
2022-11-26T23:55:02.086Z,2.40
2022-11-26T23:57:28.741Z,2.30
2022-11-26T23:59:55.385Z,2.30
